sensor_id;sensor_type;location;lat;lon;timestamp;P1;P2;P0
54021;PMS7003;39936;51.058;17.220;2023-02-25T00:00:07;9;7;3
54021;PMS7003;39936;51.058;17.220;2023-02-25T00:04:08;10;7;4
54021;PMS7003;39936;51.058;17.220;2023-02-25T00:08:04;6;6;4
54021;PMS7003;39936;51.058;17.220;2023-02-25T00:11:50;7;7;4
54021;PMS7003;39936;51.058;17.220;2023-02-25T00:15:07;5;3;2
54021;PMS7003;39936;51.058;17.220;2023-02-25T00:18:44;6;4;2
54021;PMS7003;39936;51.058;17.220;2023-02-25T00:22:35;6;4;3
54021;PMS7003;39936;51.058;17.220;2023-02-25T00:26:16;8;7;3
54021;PMS7003;39936;51.058;17.220;2023-02-25T00:29:52;14;7;3
54021;PMS7003;39936;51.058;17.220;2023-02-25T00:33:19;5;5;2
54021;PMS7003;39936;51.058;17.220;2023-02-25T00:36:59;6;5;2
54021;PMS7003;39936;51.058;17.220;2023-02-25T00:40:40;6;5;3
54021;PMS7003;39936;51.058;17.220;2023-02-25T00:44:19;5;3;1
54021;PMS7003;39936;51.058;17.220;2023-02-25T00:48:06;6;5;2
54021;PMS7003;39936;51.058;17.220;2023-02-25T00:55:56;4;3;1
54021;PMS7003;39936;51.058;17.220;2023-02-25T00:59:23;7;6;4
54021;PMS7003;39936;51.058;17.220;2023-02-25T01:03:22;7;6;2
54021;PMS7003;39936;51.058;17.220;2023-02-25T01:07:42;7;3;1
54021;PMS7003;39936;51.058;17.220;2023-02-25T01:11:46;8;5;2
54021;PMS7003;39936;51.058;17.220;2023-02-25T01:15:18;11;5;3
54021;PMS7003;39936;51.058;17.220;2023-02-25T01:19:01;3;1;1
54021;PMS7003;39936;51.058;17.220;2023-02-25T01:22:27;7;3;3
54021;PMS7003;39936;51.058;17.220;2023-02-25T01:25:50;8;7;5
54021;PMS7003;39936;51.058;17.220;2023-02-25T01:29:18;7;5;3
54021;PMS7003;39936;51.058;17.220;2023-02-25T01:37:08;7;3;1
54021;PMS7003;39936;51.058;17.220;2023-02-25T01:40:29;4;3;1
54021;PMS7003;39936;51.058;17.220;2023-02-25T01:52:00;7;7;3
54021;PMS7003;39936;51.058;17.220;2023-02-25T01:55:40;5;3;2
54021;PMS7003;39936;51.058;17.220;2023-02-25T01:59:00;7;6;4
54021;PMS7003;39936;51.058;17.220;2023-02-25T02:02:36;7;7;4
54021;PMS7003;39936;51.058;17.220;2023-02-25T02:06:48;8;6;3
54021;PMS7003;39936;51.058;17.220;2023-02-25T02:10:51;5;5;3
54021;PMS7003;39936;51.058;17.220;2023-02-25T02:14:39;8;8;3
54021;PMS7003;39936;51.058;17.220;2023-02-25T02:18:16;8;6;3
54021;PMS7003;39936;51.058;17.220;2023-02-25T02:22:10;8;8;5
54021;PMS7003;39936;51.058;17.220;2023-02-25T02:30:05;13;11;6
54021;PMS7003;39936;51.058;17.220;2023-02-25T02:34:10;12;10;5
54021;PMS7003;39936;51.058;17.220;2023-02-25T02:41:40;9;9;3
54021;PMS7003;39936;51.058;17.220;2023-02-25T02:45:40;12;9;5
54021;PMS7003;39936;51.058;17.220;2023-02-25T02:49:34;15;8;5
54021;PMS7003;39936;51.058;17.220;2023-02-25T02:53:15;12;8;5
54021;PMS7003;39936;51.058;17.220;2023-02-25T02:56:56;9;7;4
54021;PMS7003;39936;51.058;17.220;2023-02-25T03:00:39;12;10;5
54021;PMS7003;39936;51.058;17.220;2023-02-25T03:04:09;10;8;4
54021;PMS7003;39936;51.058;17.220;2023-02-25T03:07:30;8;8;5
54021;PMS7003;39936;51.058;17.220;2023-02-25T03:11:07;9;8;5
54021;PMS7003;39936;51.058;17.220;2023-02-25T03:14:39;9;7;3
54021;PMS7003;39936;51.058;17.220;2023-02-25T03:22:13;9;7;3
54021;PMS7003;39936;51.058;17.220;2023-02-25T03:25:34;10;8;3
54021;PMS7003;39936;51.058;17.220;2023-02-25T03:29:24;7;4;3
54021;PMS7003;39936;51.058;17.220;2023-02-25T03:32:45;6;5;3
54021;PMS7003;39936;51.058;17.220;2023-02-25T03:36:34;3;3;3
54021;PMS7003;39936;51.058;17.220;2023-02-25T03:39:58;4;4;2
54021;PMS7003;39936;51.058;17.220;2023-02-25T03:43:44;5;5;2
54021;PMS7003;39936;51.058;17.220;2023-02-25T03:47:22;7;6;3
54021;PMS7003;39936;51.058;17.220;2023-02-25T03:51:17;6;5;3
54021;PMS7003;39936;51.058;17.220;2023-02-25T03:54:37;4;4;2
54021;PMS7003;39936;51.058;17.220;2023-02-25T04:01:58;7;5;2
54021;PMS7003;39936;51.058;17.220;2023-02-25T04:05:50;6;4;2
54021;PMS7003;39936;51.058;17.220;2023-02-25T04:09:06;6;6;2
54021;PMS7003;39936;51.058;17.220;2023-02-25T04:16:18;8;5;2
54021;PMS7003;39936;51.058;17.220;2023-02-25T04:19:49;8;6;3
54021;PMS7003;39936;51.058;17.220;2023-02-25T04:23:35;6;4;2
54021;PMS7003;39936;51.058;17.220;2023-02-25T04:27:13;7;3;2
54021;PMS7003;39936;51.058;17.220;2023-02-25T04:31:04;6;4;2
54021;PMS7003;39936;51.058;17.220;2023-02-25T04:35:07;7;2;1
54021;PMS7003;39936;51.058;17.220;2023-02-25T04:38:29;2;2;0
54021;PMS7003;39936;51.058;17.220;2023-02-25T04:42:56;4;3;2
54021;PMS7003;39936;51.058;17.220;2023-02-25T04:46:36;3;2;0
54021;PMS7003;39936;51.058;17.220;2023-02-25T04:50:18;3;3;0
54021;PMS7003;39936;51.058;17.220;2023-02-25T04:54:06;1;1;0
54021;PMS7003;39936;51.058;17.220;2023-02-25T04:57:38;5;3;2
54021;PMS7003;39936;51.058;17.220;2023-02-25T05:01:50;6;2;2
54021;PMS7003;39936;51.058;17.220;2023-02-25T05:09:20;7;3;1
54021;PMS7003;39936;51.058;17.220;2023-02-25T05:12:56;3;2;1
54021;PMS7003;39936;51.058;17.220;2023-02-25T05:16:33;3;2;1
54021;PMS7003;39936;51.058;17.220;2023-02-25T05:20:12;4;3;1
54021;PMS7003;39936;51.058;17.220;2023-02-25T05:24:03;7;3;0
54021;PMS7003;39936;51.058;17.220;2023-02-25T05:27:50;5;4;2
54021;PMS7003;39936;51.058;17.220;2023-02-25T05:31:10;2;2;0
54021;PMS7003;39936;51.058;17.220;2023-02-25T05:35:12;3;3;1
54021;PMS7003;39936;51.058;17.220;2023-02-25T05:39:00;1;1;1
54021;PMS7003;39936;51.058;17.220;2023-02-25T05:42:15;3;3;0
54021;PMS7003;39936;51.058;17.220;2023-02-25T05:46:25;5;5;2
54021;PMS7003;39936;51.058;17.220;2023-02-25T05:49:46;1;1;1
54021;PMS7003;39936;51.058;17.220;2023-02-25T05:53:01;3;3;0
54021;PMS7003;39936;51.058;17.220;2023-02-25T05:56:52;4;3;1
54021;PMS7003;39936;51.058;17.220;2023-02-25T06:00:14;5;2;0
54021;PMS7003;39936;51.058;17.220;2023-02-25T06:03:57;2;1;1
54021;PMS7003;39936;51.058;17.220;2023-02-25T06:08:00;2;2;1
54021;PMS7003;39936;51.058;17.220;2023-02-25T06:11:38;1;1;0
54021;PMS7003;39936;51.058;17.220;2023-02-25T06:19:13;3;2;0
54021;PMS7003;39936;51.058;17.220;2023-02-25T06:22:45;2;2;0
54021;PMS7003;39936;51.058;17.220;2023-02-25T06:26:01;3;2;0
54021;PMS7003;39936;51.058;17.220;2023-02-25T06:29:37;2;1;0
54021;PMS7003;39936;51.058;17.220;2023-02-25T06:33:05;5;3;1
54021;PMS7003;39936;51.058;17.220;2023-02-25T06:37:18;2;1;0
54021;PMS7003;39936;51.058;17.220;2023-02-25T06:40:53;2;2;0
54021;PMS7003;39936;51.058;17.220;2023-02-25T06:44:32;2;1;0
54021;PMS7003;39936;51.058;17.220;2023-02-25T06:48:54;3;1;0
54021;PMS7003;39936;51.058;17.220;2023-02-25T06:52:40;4;2;0
54021;PMS7003;39936;51.058;17.220;2023-02-25T06:56:00;5;2;1
54021;PMS7003;39936;51.058;17.220;2023-02-25T06:59:36;2;1;0
54021;PMS7003;39936;51.058;17.220;2023-02-25T07:03:11;2;2;1
54021;PMS7003;39936;51.058;17.220;2023-02-25T07:07:21;3;2;0
54021;PMS7003;39936;51.058;17.220;2023-02-25T07:11:28;2;2;0
54021;PMS7003;39936;51.058;17.220;2023-02-25T07:15:13;3;2;0
54021;PMS7003;39936;51.058;17.220;2023-02-25T07:18:35;3;2;0
54021;PMS7003;39936;51.058;17.220;2023-02-25T07:22:15;8;2;0
54021;PMS7003;39936;51.058;17.220;2023-02-25T07:25:44;3;3;1
54021;PMS7003;39936;51.058;17.220;2023-02-25T07:29:12;4;2;1
54021;PMS7003;39936;51.058;17.220;2023-02-25T07:33:02;5;2;1
54021;PMS7003;39936;51.058;17.220;2023-02-25T07:36:18;1;1;0
54021;PMS7003;39936;51.058;17.220;2023-02-25T07:39:47;2;1;0
54021;PMS7003;39936;51.058;17.220;2023-02-25T07:44:00;5;3;1
54021;PMS7003;39936;51.058;17.220;2023-02-25T07:48:06;6;2;0
54021;PMS7003;39936;51.058;17.220;2023-02-25T07:55:26;2;2;0
54021;PMS7003;39936;51.058;17.220;2023-02-25T07:58:57;2;2;1
54021;PMS7003;39936;51.058;17.220;2023-02-25T08:02:18;3;3;1
54021;PMS7003;39936;51.058;17.220;2023-02-25T08:06:01;3;1;1
54021;PMS7003;39936;51.058;17.220;2023-02-25T08:10:07;1;1;0
54021;PMS7003;39936;51.058;17.220;2023-02-25T08:14:08;1;0;0
54021;PMS7003;39936;51.058;17.220;2023-02-25T08:17:24;2;2;1
54021;PMS7003;39936;51.058;17.220;2023-02-25T08:21:28;3;3;1
54021;PMS7003;39936;51.058;17.220;2023-02-25T08:25:42;0;0;0
54021;PMS7003;39936;51.058;17.220;2023-02-25T08:29:23;1;1;1
54021;PMS7003;39936;51.058;17.220;2023-02-25T08:33:48;2;2;0
54021;PMS7003;39936;51.058;17.220;2023-02-25T08:37:19;5;1;0
54021;PMS7003;39936;51.058;17.220;2023-02-25T08:40:44;3;3;1
54021;PMS7003;39936;51.058;17.220;2023-02-25T08:48:42;4;2;0
54021;PMS7003;39936;51.058;17.220;2023-02-25T08:52:13;2;2;0
54021;PMS7003;39936;51.058;17.220;2023-02-25T08:55:42;3;3;1
54021;PMS7003;39936;51.058;17.220;2023-02-25T08:59:32;1;1;0
54021;PMS7003;39936;51.058;17.220;2023-02-25T09:03:33;2;2;1
54021;PMS7003;39936;51.058;17.220;2023-02-25T09:07:16;1;1;1
54021;PMS7003;39936;51.058;17.220;2023-02-25T09:10:58;3;3;1
54021;PMS7003;39936;51.058;17.220;2023-02-25T09:14:37;4;1;0
54021;PMS7003;39936;51.058;17.220;2023-02-25T09:18:16;4;3;1
54021;PMS7003;39936;51.058;17.220;2023-02-25T09:22:30;10;6;3
54021;PMS7003;39936;51.058;17.220;2023-02-25T09:25:47;2;1;0
54021;PMS7003;39936;51.058;17.220;2023-02-25T09:29:38;6;4;2
54021;PMS7003;39936;51.058;17.220;2023-02-25T09:33:18;5;4;3
54021;PMS7003;39936;51.058;17.220;2023-02-25T09:37:08;4;4;2
54021;PMS7003;39936;51.058;17.220;2023-02-25T09:40:50;2;2;1
54021;PMS7003;39936;51.058;17.220;2023-02-25T09:44:26;3;3;0
54021;PMS7003;39936;51.058;17.220;2023-02-25T09:47:56;6;4;1
54021;PMS7003;39936;51.058;17.220;2023-02-25T09:51:22;2;2;1
54021;PMS7003;39936;51.058;17.220;2023-02-25T09:55:05;5;5;1
54021;PMS7003;39936;51.058;17.220;2023-02-25T10:02:23;6;3;2
54021;PMS7003;39936;51.058;17.220;2023-02-25T10:06:30;2;2;0
54021;PMS7003;39936;51.058;17.220;2023-02-25T10:10:08;5;4;2
54021;PMS7003;39936;51.058;17.220;2023-02-25T10:21:21;3;3;1
54021;PMS7003;39936;51.058;17.220;2023-02-25T10:24:45;6;5;2
54021;PMS7003;39936;51.058;17.220;2023-02-25T10:28:26;6;6;4
54021;PMS7003;39936;51.058;17.220;2023-02-25T10:36:32;4;4;3
54021;PMS7003;39936;51.058;17.220;2023-02-25T10:40:33;8;8;4
54021;PMS7003;39936;51.058;17.220;2023-02-25T10:43:52;5;5;1
54021;PMS7003;39936;51.058;17.220;2023-02-25T10:47:34;5;3;1
54021;PMS7003;39936;51.058;17.220;2023-02-25T10:51:22;7;6;1
54021;PMS7003;39936;51.058;17.220;2023-02-25T10:55:03;3;2;0
54021;PMS7003;39936;51.058;17.220;2023-02-25T10:58:42;5;4;2
54021;PMS7003;39936;51.058;17.220;2023-02-25T11:06:21;4;2;1
54021;PMS7003;39936;51.058;17.220;2023-02-25T11:10:14;4;2;1
54021;PMS7003;39936;51.058;17.220;2023-02-25T11:13:51;1;1;0
54021;PMS7003;39936;51.058;17.220;2023-02-25T11:17:18;6;5;3
54021;PMS7003;39936;51.058;17.220;2023-02-25T11:20:48;3;1;0
54021;PMS7003;39936;51.058;17.220;2023-02-25T11:24:15;2;1;1
54021;PMS7003;39936;51.058;17.220;2023-02-25T11:27:44;7;5;3
54021;PMS7003;39936;51.058;17.220;2023-02-25T11:31:36;2;1;0
54021;PMS7003;39936;51.058;17.220;2023-02-25T11:47:20;6;2;0
54021;PMS7003;39936;51.058;17.220;2023-02-25T11:51:06;3;3;1
54021;PMS7003;39936;51.058;17.220;2023-02-25T11:54:33;1;0;0
54021;PMS7003;39936;51.058;17.220;2023-02-25T12:02:55;1;1;1
54021;PMS7003;39936;51.058;17.220;2023-02-25T12:06:38;3;3;1
54021;PMS7003;39936;51.058;17.220;2023-02-25T12:10:12;1;1;0
54021;PMS7003;39936;51.058;17.220;2023-02-25T12:13:42;4;2;0
54021;PMS7003;39936;51.058;17.220;2023-02-25T12:21:32;1;1;0
54021;PMS7003;39936;51.058;17.220;2023-02-25T12:25:07;1;1;0
54021;PMS7003;39936;51.058;17.220;2023-02-25T12:28:49;2;2;0
54021;PMS7003;39936;51.058;17.220;2023-02-25T13:14:36;2;1;0
54021;PMS7003;39936;51.058;17.220;2023-02-25T13:50:32;1;1;0
54021;PMS7003;39936;51.058;17.220;2023-02-25T14:21:42;1;1;0
54021;PMS7003;39936;51.058;17.220;2023-02-25T14:29:56;0;0;0
54021;PMS7003;39936;51.058;17.220;2023-02-25T14:48:47;1;1;0
54021;PMS7003;39936;51.058;17.220;2023-02-25T14:52:58;3;1;1
54021;PMS7003;39936;51.058;17.220;2023-02-25T15:23:19;5;1;0
54021;PMS7003;39936;51.058;17.220;2023-02-25T15:26:58;3;3;2
54021;PMS7003;39936;51.058;17.220;2023-02-25T15:34:27;2;2;1
54021;PMS7003;39936;51.058;17.220;2023-02-25T15:38:08;3;2;2
54021;PMS7003;39936;51.058;17.220;2023-02-25T15:42:04;4;2;0
54021;PMS7003;39936;51.058;17.220;2023-02-25T15:49:21;3;3;2
54021;PMS7003;39936;51.058;17.220;2023-02-25T15:53:51;6;5;1
54021;PMS7003;39936;51.058;17.220;2023-02-25T15:57:43;4;3;1
54021;PMS7003;39936;51.058;17.220;2023-02-25T16:04:56;2;1;0
54021;PMS7003;39936;51.058;17.220;2023-02-25T16:08:22;6;5;3
54021;PMS7003;39936;51.058;17.220;2023-02-25T16:12:04;4;3;0
54021;PMS7003;39936;51.058;17.220;2023-02-25T16:18:58;3;1;0
54021;PMS7003;39936;51.058;17.220;2023-02-25T16:22:36;3;3;1
54021;PMS7003;39936;51.058;17.220;2023-02-25T16:29:38;4;3;1
54021;PMS7003;39936;51.058;17.220;2023-02-25T16:44:39;7;5;3
54021;PMS7003;39936;51.058;17.220;2023-02-25T16:48:06;3;2;1
54021;PMS7003;39936;51.058;17.220;2023-02-25T16:55:42;3;1;1
54021;PMS7003;39936;51.058;17.220;2023-02-25T16:59:45;7;5;2
54021;PMS7003;39936;51.058;17.220;2023-02-25T17:03:11;3;2;1
54021;PMS7003;39936;51.058;17.220;2023-02-25T17:10:44;7;5;3
54021;PMS7003;39936;51.058;17.220;2023-02-25T17:14:31;5;4;3
54021;PMS7003;39936;51.058;17.220;2023-02-25T17:18:25;4;4;2
54021;PMS7003;39936;51.058;17.220;2023-02-25T17:22:04;5;5;3
54021;PMS7003;39936;51.058;17.220;2023-02-25T17:25:46;6;4;3
54021;PMS7003;39936;51.058;17.220;2023-02-25T17:29:45;2;2;1
54021;PMS7003;39936;51.058;17.220;2023-02-25T17:34:12;3;3;1
54021;PMS7003;39936;51.058;17.220;2023-02-25T17:37:54;7;5;2
54021;PMS7003;39936;51.058;17.220;2023-02-25T17:41:58;6;4;3
54021;PMS7003;39936;51.058;17.220;2023-02-25T17:49:32;5;5;3
54021;PMS7003;39936;51.058;17.220;2023-02-25T17:54:06;7;4;3
54021;PMS7003;39936;51.058;17.220;2023-02-25T17:58:14;8;6;4
54021;PMS7003;39936;51.058;17.220;2023-02-25T18:02:02;3;3;2
54021;PMS7003;39936;51.058;17.220;2023-02-25T18:09:37;4;2;0
54021;PMS7003;39936;51.058;17.220;2023-02-25T18:17:37;8;6;4
54021;PMS7003;39936;51.058;17.220;2023-02-25T18:25:27;5;4;2
54021;PMS7003;39936;51.058;17.220;2023-02-25T18:29:00;8;7;4
54021;PMS7003;39936;51.058;17.220;2023-02-25T18:32:21;4;4;2
54021;PMS7003;39936;51.058;17.220;2023-02-25T18:35:58;5;4;2
54021;PMS7003;39936;51.058;17.220;2023-02-25T18:48:27;7;5;3
54021;PMS7003;39936;51.058;17.220;2023-02-25T18:51:53;7;3;2
54021;PMS7003;39936;51.058;17.220;2023-02-25T18:55:55;5;5;4
54021;PMS7003;39936;51.058;17.220;2023-02-25T18:59:33;3;3;2
54021;PMS7003;39936;51.058;17.220;2023-02-25T19:02:54;7;4;3
54021;PMS7003;39936;51.058;17.220;2023-02-25T19:07:04;8;5;1
54021;PMS7003;39936;51.058;17.220;2023-02-25T19:10:29;5;4;3
54021;PMS7003;39936;51.058;17.220;2023-02-25T19:14:23;5;5;2
54021;PMS7003;39936;51.058;17.220;2023-02-25T19:18:04;8;6;3
54021;PMS7003;39936;51.058;17.220;2023-02-25T19:22:01;6;5;4
54021;PMS7003;39936;51.058;17.220;2023-02-25T19:25:33;3;3;2
54021;PMS7003;39936;51.058;17.220;2023-02-25T19:29:34;4;3;0
54021;PMS7003;39936;51.058;17.220;2023-02-25T19:32:53;4;2;1
54021;PMS7003;39936;51.058;17.220;2023-02-25T19:36:19;1;1;0
54021;PMS7003;39936;51.058;17.220;2023-02-25T19:40:14;2;2;1
54021;PMS7003;39936;51.058;17.220;2023-02-25T19:44:24;4;4;2
54021;PMS7003;39936;51.058;17.220;2023-02-25T19:48:40;3;3;2
54021;PMS7003;39936;51.058;17.220;2023-02-25T19:51:58;2;2;0
54021;PMS7003;39936;51.058;17.220;2023-02-25T19:55:35;6;4;2
54021;PMS7003;39936;51.058;17.220;2023-02-25T19:59:31;2;2;1
54021;PMS7003;39936;51.058;17.220;2023-02-25T20:02:53;7;3;2
54021;PMS7003;39936;51.058;17.220;2023-02-25T20:06:16;4;4;2
54021;PMS7003;39936;51.058;17.220;2023-02-25T20:09:41;5;3;2
54021;PMS7003;39936;51.058;17.220;2023-02-25T20:13:18;6;2;1
54021;PMS7003;39936;51.058;17.220;2023-02-25T20:17:37;7;6;2
54021;PMS7003;39936;51.058;17.220;2023-02-25T20:21:26;3;3;1
54021;PMS7003;39936;51.058;17.220;2023-02-25T20:24:51;5;3;1
54021;PMS7003;39936;51.058;17.220;2023-02-25T20:28:08;8;5;3
54021;PMS7003;39936;51.058;17.220;2023-02-25T20:31:47;7;6;3
54021;PMS7003;39936;51.058;17.220;2023-02-25T20:35:27;5;4;2
54021;PMS7003;39936;51.058;17.220;2023-02-25T20:42:47;10;4;2
54021;PMS7003;39936;51.058;17.220;2023-02-25T20:46:28;6;2;1
54021;PMS7003;39936;51.058;17.220;2023-02-25T20:50:09;7;3;2
54021;PMS7003;39936;51.058;17.220;2023-02-25T20:53:52;2;2;0
54021;PMS7003;39936;51.058;17.220;2023-02-25T20:57:27;4;3;2
54021;PMS7003;39936;51.058;17.220;2023-02-25T21:00:54;6;3;2
54021;PMS7003;39936;51.058;17.220;2023-02-25T21:09:00;6;3;2
54021;PMS7003;39936;51.058;17.220;2023-02-25T21:12:19;7;5;4
54021;PMS7003;39936;51.058;17.220;2023-02-25T21:15:36;7;6;3
54021;PMS7003;39936;51.058;17.220;2023-02-25T21:24:04;7;4;2
54021;PMS7003;39936;51.058;17.220;2023-02-25T21:27:44;4;1;0
54021;PMS7003;39936;51.058;17.220;2023-02-25T21:31:12;5;4;2
54021;PMS7003;39936;51.058;17.220;2023-02-25T21:34:58;10;4;2
54021;PMS7003;39936;51.058;17.220;2023-02-25T21:38:16;4;3;2
54021;PMS7003;39936;51.058;17.220;2023-02-25T21:42:09;7;5;3
54021;PMS7003;39936;51.058;17.220;2023-02-25T21:46:00;6;5;2
54021;PMS7003;39936;51.058;17.220;2023-02-25T21:49:39;7;4;2
54021;PMS7003;39936;51.058;17.220;2023-02-25T21:53:37;9;5;3
54021;PMS7003;39936;51.058;17.220;2023-02-25T21:57:14;1;1;1
54021;PMS7003;39936;51.058;17.220;2023-02-25T22:01:07;4;2;1
54021;PMS7003;39936;51.058;17.220;2023-02-25T22:04:46;4;2;1
54021;PMS7003;39936;51.058;17.220;2023-02-25T22:08:33;3;2;1
54021;PMS7003;39936;51.058;17.220;2023-02-25T22:12:19;2;0;0
54021;PMS7003;39936;51.058;17.220;2023-02-25T22:16:24;3;3;1
54021;PMS7003;39936;51.058;17.220;2023-02-25T22:20:06;10;4;2
54021;PMS7003;39936;51.058;17.220;2023-02-25T22:23:47;4;2;1
54021;PMS7003;39936;51.058;17.220;2023-02-25T22:27:04;2;1;1
54021;PMS7003;39936;51.058;17.220;2023-02-25T22:34:19;3;2;1
54021;PMS7003;39936;51.058;17.220;2023-02-25T22:38:12;1;1;0
54021;PMS7003;39936;51.058;17.220;2023-02-25T22:41:48;3;0;0
54021;PMS7003;39936;51.058;17.220;2023-02-25T22:45:27;5;3;1
54021;PMS7003;39936;51.058;17.220;2023-02-25T22:49:30;1;1;1
54021;PMS7003;39936;51.058;17.220;2023-02-25T22:53:11;1;1;0
54021;PMS7003;39936;51.058;17.220;2023-02-25T22:57:04;8;3;3
54021;PMS7003;39936;51.058;17.220;2023-02-25T23:00:42;5;2;1
54021;PMS7003;39936;51.058;17.220;2023-02-25T23:04:00;2;0;0
54021;PMS7003;39936;51.058;17.220;2023-02-25T23:07:27;2;1;1
54021;PMS7003;39936;51.058;17.220;2023-02-25T23:10:46;5;4;2
54021;PMS7003;39936;51.058;17.220;2023-02-25T23:14:05;4;1;0
54021;PMS7003;39936;51.058;17.220;2023-02-25T23:17:30;2;2;0
54021;PMS7003;39936;51.058;17.220;2023-02-25T23:21:27;3;3;1
54021;PMS7003;39936;51.058;17.220;2023-02-25T23:25:36;3;3;1
54021;PMS7003;39936;51.058;17.220;2023-02-25T23:29:35;5;2;1
54021;PMS7003;39936;51.058;17.220;2023-02-25T23:32:55;7;5;2
54021;PMS7003;39936;51.058;17.220;2023-02-25T23:36:25;5;2;0
54021;PMS7003;39936;51.058;17.220;2023-02-25T23:40:18;4;1;0
54021;PMS7003;39936;51.058;17.220;2023-02-25T23:44:07;5;1;0
54021;PMS7003;39936;51.058;17.220;2023-02-25T23:47:21;3;3;2
54021;PMS7003;39936;51.058;17.220;2023-02-25T23:51:11;4;4;2
54021;PMS7003;39936;51.058;17.220;2023-02-25T23:55:12;6;2;0
54021;PMS7003;39936;51.058;17.220;2023-02-25T23:59:10;4;2;0
